createdAt,value
2019-04-23T00:00:08.762Z,13.45
2019-04-23T00:01:14.842Z,13.48
2019-04-23T00:02:06.608Z,13.33
2019-04-23T00:03:18.752Z,13.36
2019-04-23T00:04:08.445Z,13.23
2019-04-23T00:05:01.782Z,13.19
2019-04-23T00:06:15.525Z,13.22
2019-04-23T00:07:15.767Z,13.28
2019-04-23T00:09:12.563Z,13.51
2019-04-23T00:10:13.926Z,13.48
2019-04-23T00:11:05.300Z,13.36
2019-04-23T00:12:12.676Z,13.36
2019-04-23T00:12:59.258Z,13.38
2019-04-23T00:14:08.449Z,13.29
2019-04-23T00:15:07.378Z,13.33
2019-04-23T00:16:12.887Z,13.23
2019-04-23T00:17:04.658Z,13.23
2019-04-23T00:18:09.658Z,13.28
2019-04-23T00:18:58.882Z,13.30
2019-04-23T00:20:11.183Z,13.28
2019-04-23T00:21:11.253Z,13.20
2019-04-23T00:22:07.292Z,13.26
2019-04-23T00:23:07.804Z,13.30
2019-04-23T00:24:12.076Z,13.17
2019-04-23T00:26:24.041Z,13.07
2019-04-23T00:27:19.170Z,13.04
2019-04-23T00:29:18.966Z,13.10
2019-04-23T00:31:07.889Z,13.14
2019-04-23T00:32:10.087Z,13.11
2019-04-23T00:33:05.606Z,13.22
2019-04-23T00:34:01.048Z,13.05
2019-04-23T00:35:05.971Z,13.12
2019-04-23T00:36:03.164Z,13.04
2019-04-23T00:37:11.274Z,12.97
2019-04-23T00:38:12.084Z,13.01
2019-04-23T00:39:01.267Z,13.04
2019-04-23T00:40:03.246Z,13.01
2019-04-23T00:41:02.948Z,13.01
2019-04-23T00:42:08.280Z,13.03
2019-04-23T00:43:03.811Z,13.04
2019-04-23T00:45:00.231Z,12.87
2019-04-23T00:45:59.702Z,12.93
2019-04-23T00:47:00.985Z,13.03
2019-04-23T00:48:12.733Z,13.07
2019-04-23T00:49:06.092Z,13.03
2019-04-23T00:50:19.335Z,12.87
2019-04-23T00:50:58.226Z,12.92
2019-04-23T00:52:05.898Z,12.82
2019-04-23T00:53:04.586Z,12.83
2019-04-23T00:54:06.440Z,12.86
2019-04-23T00:56:20.637Z,12.90
2019-04-23T00:57:07.388Z,12.96
2019-04-23T00:58:10.396Z,12.96
2019-04-23T00:59:00.419Z,13.07
2019-04-23T01:00:13.913Z,13.03
2019-04-23T01:01:02.481Z,13.03
2019-04-23T01:02:03.898Z,12.92
2019-04-23T01:03:05.885Z,13.04
2019-04-23T01:04:18.518Z,12.95
2019-04-23T01:06:21.060Z,12.96
2019-04-23T01:07:04.336Z,13.01
2019-04-23T01:08:07.074Z,13.00
2019-04-23T01:09:03.768Z,12.96
2019-04-23T01:10:10.223Z,12.87
2019-04-23T01:11:06.310Z,12.89
2019-04-23T01:12:09.328Z,12.92
2019-04-23T01:13:11.307Z,12.89
2019-04-23T01:14:04.852Z,12.85
2019-04-23T01:15:02.809Z,12.95
2019-04-23T01:16:05.429Z,12.89
2019-04-23T01:17:08.440Z,12.93
2019-04-23T01:19:24.511Z,12.85
2019-04-23T01:20:01.674Z,12.78
2019-04-23T01:20:53.567Z,12.75
2019-04-23T01:21:43.295Z,12.82
2019-04-23T01:22:42.225Z,12.85
2019-04-23T01:23:51.888Z,12.75
2019-04-23T01:24:44.232Z,12.82
2019-04-23T01:25:53.759Z,12.83
2019-04-23T01:27:23.710Z,12.64
2019-04-23T01:28:11.031Z,12.54
2019-04-23T01:29:06.738Z,12.50
2019-04-23T01:30:09.643Z,12.57
2019-04-23T01:31:10.224Z,12.74
2019-04-23T01:32:13.401Z,12.85
2019-04-23T01:33:11.063Z,12.83
2019-04-23T01:34:08.405Z,12.86
2019-04-23T01:35:12.789Z,12.96
2019-04-23T01:36:20.627Z,12.89
2019-04-23T01:37:15.176Z,12.82
2019-04-23T01:38:04.512Z,12.79
2019-04-23T01:39:23.198Z,12.82
2019-04-23T01:40:16.768Z,12.79
2019-04-23T01:41:07.857Z,12.83
2019-04-23T01:42:12.959Z,12.79
2019-04-23T01:43:03.597Z,12.77
2019-04-23T01:44:06.933Z,12.68
2019-04-23T01:45:16.223Z,12.65
2019-04-23T01:46:09.836Z,12.52
2019-04-23T01:47:09.620Z,12.56
2019-04-23T01:48:22.455Z,12.50
2019-04-23T01:49:07.109Z,12.56
2019-04-23T01:51:04.077Z,12.47
2019-04-23T01:52:08.206Z,12.59
2019-04-23T01:54:06.924Z,12.54
2019-04-23T01:55:09.650Z,12.64
2019-04-23T01:56:14.422Z,12.70
2019-04-23T01:57:11.472Z,12.70
2019-04-23T01:58:25.886Z,12.64
2019-04-23T01:59:16.143Z,12.67
2019-04-23T02:00:14.209Z,12.65
2019-04-23T02:01:06.519Z,12.71
2019-04-23T02:02:05.057Z,12.68
2019-04-23T02:03:12.200Z,12.56
2019-04-23T02:04:11.277Z,12.57
2019-04-23T02:06:07.457Z,12.54
2019-04-23T02:07:06.563Z,12.54
2019-04-23T02:09:05.284Z,12.65
2019-04-23T02:10:34.438Z,12.54
2019-04-23T02:12:04.475Z,12.57
2019-04-23T02:13:12.089Z,12.52
2019-04-23T02:14:24.846Z,12.49
2019-04-23T02:15:13.852Z,12.47
2019-04-23T02:16:05.112Z,12.31
2019-04-23T02:17:10.238Z,12.38
2019-04-23T02:20:09.179Z,12.35
2019-04-23T02:21:07.011Z,12.37
2019-04-23T02:22:05.184Z,12.34
2019-04-23T02:23:11.621Z,12.28
2019-04-23T02:24:06.861Z,12.39
2019-04-23T02:25:13.377Z,12.34
2019-04-23T02:26:04.782Z,12.45
2019-04-23T02:27:05.630Z,12.47
2019-04-23T02:28:10.727Z,12.53
2019-04-23T02:29:26.603Z,12.57
2019-04-23T02:31:25.399Z,12.50
2019-04-23T02:35:17.012Z,12.32
2019-04-23T02:36:07.382Z,12.32
2019-04-23T02:37:15.050Z,12.34
2019-04-23T02:39:01.001Z,12.45
2019-04-23T02:40:23.648Z,12.29
2019-04-23T02:41:20.352Z,12.29
2019-04-23T02:42:41.131Z,12.27
2019-04-23T02:43:13.049Z,12.29
2019-04-23T02:45:09.389Z,12.31
2019-04-23T02:46:05.481Z,12.24
2019-04-23T02:48:19.931Z,12.24
2019-04-23T02:50:34.919Z,12.31
2019-04-23T02:51:10.723Z,12.29
2019-04-23T02:52:16.063Z,12.27
2019-04-23T02:53:20.071Z,12.19
2019-04-23T02:56:16.140Z,12.17
2019-04-23T02:57:13.324Z,12.17
2019-04-23T02:58:19.168Z,12.20
2019-04-23T02:59:21.412Z,12.19
2019-04-23T03:00:18.585Z,12.14
2019-04-23T03:02:30.834Z,12.09
2019-04-23T03:03:22.533Z,12.19
2019-04-23T03:04:19.762Z,12.13
2019-04-23T03:05:11.199Z,12.20
2019-04-23T03:07:15.590Z,12.16
2019-04-23T03:08:06.274Z,12.16
2019-04-23T03:09:13.381Z,12.27
2019-04-23T03:12:18.479Z,12.32
2019-04-23T03:13:19.365Z,12.17
2019-04-23T03:14:18.560Z,12.21
2019-04-23T03:15:21.390Z,12.23
2019-04-23T03:16:21.832Z,12.23
2019-04-23T03:17:11.143Z,12.19
2019-04-23T03:19:09.788Z,12.10
2019-04-23T03:20:15.681Z,12.09
2019-04-23T03:26:34.823Z,11.98
2019-04-23T03:28:23.181Z,12.01
2019-04-23T03:32:51.801Z,11.99
2019-04-23T03:34:30.247Z,11.88
2019-04-23T03:35:17.778Z,11.98
2019-04-23T03:37:26.462Z,11.99
2019-04-23T03:38:20.499Z,11.94
2019-04-23T03:38:55.823Z,12.02
2019-04-23T03:42:12.032Z,11.98
2019-04-23T03:44:02.137Z,11.94
2019-04-23T03:45:16.775Z,11.86
2019-04-23T03:46:15.686Z,11.99
2019-04-23T03:47:10.803Z,11.96
2019-04-23T03:48:14.892Z,11.94
2019-04-23T03:50:15.318Z,11.85
2019-04-23T03:51:13.772Z,11.82
2019-04-23T03:53:22.558Z,11.85
2019-04-23T03:55:10.341Z,11.69
2019-04-23T03:55:23.161Z,11.75
2019-04-23T03:56:14.544Z,11.70
2019-04-23T03:57:18.529Z,11.65
2019-04-23T03:58:12.193Z,11.62
2019-04-23T03:59:10.713Z,11.72
2019-04-23T04:00:12.496Z,11.65
2019-04-23T04:01:16.232Z,11.57
2019-04-23T04:03:27.577Z,11.54
2019-04-23T04:05:17.762Z,11.60
2019-04-23T04:10:06.716Z,11.85
2019-04-23T04:11:14.543Z,11.72
2019-04-23T04:12:17.331Z,11.79
2019-04-23T04:13:15.773Z,11.80
2019-04-23T04:14:21.307Z,11.72
2019-04-23T04:15:18.306Z,11.67
2019-04-23T04:19:22.594Z,11.46
2019-04-23T04:20:15.222Z,11.47
2019-04-23T04:21:14.491Z,11.42
2019-04-23T04:22:20.717Z,11.58
2019-04-23T04:23:13.536Z,11.65
2019-04-23T04:24:31.279Z,11.72
2019-04-23T04:25:14.363Z,11.75
2019-04-23T04:26:17.866Z,11.60
2019-04-23T04:27:12.891Z,11.60
2019-04-23T04:29:30.326Z,11.78
2019-04-23T04:30:14.983Z,11.75
2019-04-23T04:31:16.351Z,11.69
2019-04-23T04:32:15.093Z,11.78
2019-04-23T04:33:15.138Z,11.72
2019-04-23T04:34:33.017Z,11.72
2019-04-23T04:35:16.130Z,11.88
2019-04-23T04:36:13.955Z,11.86
2019-04-23T04:38:30.233Z,11.91
2019-04-23T04:39:03.326Z,11.83
2019-04-23T04:41:05.504Z,11.91
2019-04-23T04:42:14.869Z,11.88
2019-04-23T04:45:14.139Z,12.04
2019-04-23T04:47:09.818Z,11.90
2019-04-23T04:48:00.489Z,11.94
2019-04-23T04:50:14.855Z,11.99
2019-04-23T04:51:19.426Z,11.99
2019-04-23T04:54:21.598Z,11.95
2019-04-23T04:56:14.331Z,11.98
2019-04-23T04:57:13.101Z,11.95
2019-04-23T04:58:07.219Z,12.02
2019-04-23T05:00:13.363Z,12.12
2019-04-23T05:01:13.860Z,12.19
2019-04-23T05:02:16.221Z,12.27
2019-04-23T05:03:22.209Z,12.27
2019-04-23T05:04:18.211Z,12.17
2019-04-23T05:05:47.751Z,12.20
2019-04-23T05:06:24.478Z,12.20
2019-04-23T05:07:09.340Z,12.20
2019-04-23T05:08:09.232Z,12.24
2019-04-23T05:09:16.995Z,12.32
2019-04-23T05:12:17.047Z,12.42
2019-04-23T05:13:22.729Z,12.53
2019-04-23T05:14:26.186Z,12.59
2019-04-23T05:16:07.718Z,12.87
2019-04-23T05:17:08.618Z,12.87
2019-04-23T05:19:19.846Z,13.23
2019-04-23T05:20:05.127Z,13.59
2019-04-23T05:24:08.943Z,15.62
2019-04-23T05:24:57.109Z,15.83
2019-04-23T05:26:01.102Z,16.31
2019-04-23T05:27:05.542Z,16.57
2019-04-23T05:30:07.852Z,16.56
2019-04-23T05:31:08.641Z,16.05
2019-04-23T05:31:58.218Z,15.78
2019-04-23T05:33:05.659Z,16.08
2019-04-23T05:34:04.498Z,16.56
2019-04-23T05:35:07.430Z,17.04
2019-04-23T05:36:12.653Z,17.08
2019-04-23T05:37:01.880Z,16.63
2019-04-23T05:38:29.138Z,16.98
2019-04-23T05:39:12.084Z,16.89
2019-04-23T05:40:08.511Z,16.61
2019-04-23T05:41:10.378Z,16.34
2019-04-23T05:42:01.474Z,16.23
2019-04-23T05:43:08.181Z,16.41
2019-04-23T05:44:06.911Z,16.31
2019-04-23T05:46:09.623Z,16.63
2019-04-23T05:47:11.489Z,16.76
2019-04-23T05:48:07.067Z,16.96
2019-04-23T05:49:07.623Z,16.96
2019-04-23T05:50:15.564Z,16.83
2019-04-23T05:51:06.083Z,16.53
2019-04-23T05:53:07.317Z,17.31
2019-04-23T05:54:01.816Z,17.49
2019-04-23T05:55:01.614Z,17.75
2019-04-23T05:56:01.827Z,17.82
2019-04-23T05:58:05.169Z,17.71
2019-04-23T06:00:04.026Z,17.18
2019-04-23T06:01:05.840Z,17.25
2019-04-23T06:02:07.552Z,17.21
2019-04-23T06:03:04.914Z,17.22
2019-04-23T06:05:05.980Z,17.36
2019-04-23T06:06:02.992Z,17.74
2019-04-23T06:07:16.713Z,17.72
2019-04-23T06:08:05.626Z,17.96
2019-04-23T06:11:02.527Z,17.97
2019-04-23T06:12:02.866Z,17.43
2019-04-23T06:13:03.059Z,17.70
2019-04-23T06:14:09.761Z,17.70
2019-04-23T06:14:57.607Z,17.90
2019-04-23T06:15:57.799Z,17.59
2019-04-23T06:17:09.374Z,17.44
2019-04-23T06:20:03.811Z,18.18
2019-04-23T06:21:02.987Z,18.12
2019-04-23T06:22:07.463Z,17.78
2019-04-23T06:23:09.294Z,17.66
2019-04-23T06:24:10.403Z,17.79
2019-04-23T06:25:00.955Z,17.96
2019-04-23T06:26:22.507Z,17.79
2019-04-23T06:28:01.584Z,18.08
2019-04-23T06:29:07.099Z,18.07
2019-04-23T06:29:59.486Z,18.08
2019-04-23T06:31:02.384Z,18.33
2019-04-23T06:32:14.921Z,18.07
2019-04-23T06:32:59.279Z,18.42
2019-04-23T06:34:04.155Z,18.45
2019-04-23T06:34:56.585Z,18.39
2019-04-23T06:36:05.543Z,18.73
2019-04-23T06:36:58.887Z,18.95
2019-04-23T06:38:28.111Z,18.90
2019-04-23T06:38:57.228Z,18.26
2019-04-23T06:40:00.393Z,17.86
2019-04-23T06:41:06.759Z,17.66
2019-04-23T06:42:00.368Z,17.89
2019-04-23T06:43:02.735Z,17.96
2019-04-23T06:44:08.828Z,17.86
2019-04-23T06:45:59.385Z,17.72
2019-04-23T06:48:01.650Z,17.81
2019-04-23T06:49:02.109Z,18.07
2019-04-23T06:51:04.236Z,18.66
2019-04-23T06:52:54.605Z,18.18
2019-04-23T06:53:56.763Z,17.74
2019-04-23T06:55:01.386Z,17.92
2019-04-23T06:56:08.066Z,18.21
2019-04-23T06:57:09.070Z,18.30
2019-04-23T06:58:06.351Z,18.69
2019-04-23T06:59:00.818Z,18.03
2019-04-23T07:00:02.422Z,18.10
2019-04-23T07:01:03.346Z,18.00
2019-04-23T07:02:06.278Z,17.99
2019-04-23T07:02:59.705Z,18.54
2019-04-23T07:06:11.449Z,19.78
2019-04-23T07:07:29.715Z,20.16
2019-04-23T07:09:07.831Z,19.78
2019-04-23T07:09:57.936Z,19.62
2019-04-23T07:11:08.096Z,19.61
2019-04-23T07:11:59.048Z,19.39
2019-04-23T07:13:03.157Z,19.61
2019-04-23T07:13:58.654Z,19.84
2019-04-23T07:15:11.653Z,19.55
2019-04-23T07:15:58.732Z,19.26
2019-04-23T07:16:57.091Z,19.10
2019-04-23T07:17:54.295Z,18.94
2019-04-23T07:19:04.623Z,18.95
2019-04-23T07:20:02.208Z,19.04
2019-04-23T07:21:00.652Z,19.14
2019-04-23T07:22:12.227Z,18.95
2019-04-23T07:23:04.959Z,18.80
2019-04-23T07:25:00.072Z,18.60
2019-04-23T07:26:06.103Z,18.32
2019-04-23T07:26:55.905Z,18.78
2019-04-23T07:27:59.027Z,18.42
2019-04-23T07:30:03.605Z,19.22
2019-04-23T07:31:02.174Z,19.00
2019-04-23T07:31:59.312Z,19.28
2019-04-23T07:32:56.648Z,19.23
2019-04-23T07:34:01.161Z,19.06
2019-04-23T07:36:00.510Z,18.54
2019-04-23T07:37:16.096Z,18.58
2019-04-23T07:38:11.070Z,18.60
2019-04-23T07:39:20.567Z,19.04
2019-04-23T07:40:19.663Z,19.31
2019-04-23T07:41:14.520Z,19.66
2019-04-23T07:42:09.367Z,19.14
2019-04-23T07:43:00.024Z,19.68
2019-04-23T07:44:07.798Z,19.36
2019-04-23T07:46:08.154Z,19.66
2019-04-23T07:47:13.118Z,19.81
2019-04-23T07:48:08.103Z,19.41
2019-04-23T07:48:56.721Z,19.61
2019-04-23T07:50:09.827Z,20.08
2019-04-23T07:50:55.163Z,20.48
2019-04-23T07:52:04.808Z,20.17
2019-04-23T07:53:06.771Z,20.02
2019-04-23T07:54:16.304Z,20.14
2019-04-23T07:55:02.289Z,19.86
2019-04-23T07:56:03.796Z,20.21
2019-04-23T07:58:06.508Z,19.86
2019-04-23T07:59:05.292Z,19.99
2019-04-23T08:00:02.581Z,19.95
2019-04-23T08:00:58.204Z,19.62
2019-04-23T08:02:12.843Z,19.04
2019-04-23T08:03:08.579Z,19.31
2019-04-23T08:04:04.588Z,19.10
2019-04-23T08:05:58.456Z,19.62
2019-04-23T08:07:00.795Z,19.94
2019-04-23T08:08:56.617Z,20.64
2019-04-23T08:10:00.254Z,20.66
2019-04-23T08:11:16.082Z,20.32
2019-04-23T08:11:56.281Z,20.06
2019-04-23T08:13:00.952Z,20.06
2019-04-23T08:13:58.261Z,20.17
2019-04-23T08:14:59.844Z,19.86
2019-04-23T08:16:07.043Z,19.55
2019-04-23T08:17:00.691Z,19.88
2019-04-23T08:17:59.010Z,20.64
2019-04-23T08:20:03.021Z,20.64
2019-04-23T08:20:57.097Z,20.62
2019-04-23T08:22:06.627Z,20.24
2019-04-23T08:23:03.909Z,19.81
2019-04-23T08:24:01.927Z,19.74
2019-04-23T08:25:08.435Z,19.65
2019-04-23T08:26:02.402Z,19.91
2019-04-23T08:26:59.047Z,20.11
2019-04-23T08:27:59.386Z,20.29
2019-04-23T08:29:05.872Z,20.70
2019-04-23T08:29:55.702Z,20.61
2019-04-23T08:31:00.792Z,20.89
2019-04-23T08:32:00.249Z,20.80
2019-04-23T08:32:58.827Z,20.61
2019-04-23T08:34:15.009Z,20.06
2019-04-23T08:36:09.486Z,19.84
2019-04-23T08:37:07.219Z,19.95
2019-04-23T08:38:11.978Z,20.08
2019-04-23T08:39:00.053Z,20.17
2019-04-23T08:39:52.131Z,20.59
2019-04-23T08:41:14.224Z,20.98
2019-04-23T08:42:21.546Z,21.25
2019-04-23T08:43:07.504Z,20.85
2019-04-23T08:44:06.909Z,20.79
2019-04-23T08:45:58.382Z,20.97
2019-04-23T08:47:03.315Z,21.16
2019-04-23T08:48:07.895Z,20.87
2019-04-23T08:49:06.500Z,20.76
2019-04-23T08:51:03.493Z,20.74
2019-04-23T08:52:10.167Z,20.91
2019-04-23T08:53:03.748Z,20.48
2019-04-23T08:53:55.503Z,20.50
2019-04-23T08:57:02.709Z,20.73
2019-04-23T08:57:57.309Z,21.38
2019-04-23T08:58:59.517Z,22.03
2019-04-23T08:59:58.769Z,22.39
2019-04-23T09:01:05.779Z,22.61
2019-04-23T09:02:15.946Z,22.14
2019-04-23T09:03:02.391Z,22.00
2019-04-23T09:03:56.038Z,22.20
2019-04-23T09:05:00.763Z,22.15
2019-04-23T09:05:58.006Z,21.61
2019-04-23T09:07:04.499Z,21.09
2019-04-23T09:08:56.838Z,21.19
2019-04-23T09:11:54.282Z,21.34
2019-04-23T09:13:10.145Z,22.20
2019-04-23T09:13:55.639Z,21.90
2019-04-23T09:15:01.618Z,21.53
2019-04-23T09:15:58.222Z,21.14
2019-04-23T09:17:03.494Z,20.82
2019-04-23T09:19:07.784Z,20.97
2019-04-23T09:20:11.884Z,21.44
2019-04-23T09:20:55.243Z,21.82
2019-04-23T09:22:00.535Z,21.65
2019-04-23T09:22:50.400Z,21.62
2019-04-23T09:25:02.638Z,22.06
2019-04-23T09:27:00.128Z,21.43
2019-04-23T09:28:05.269Z,21.50
2019-04-23T09:28:57.995Z,21.65
2019-04-23T09:30:00.662Z,21.62
2019-04-23T09:31:04.011Z,21.27
2019-04-23T09:32:13.550Z,21.61
2019-04-23T09:33:00.724Z,21.69
2019-04-23T09:33:58.037Z,21.82
2019-04-23T09:35:52.525Z,21.65
2019-04-23T09:38:59.805Z,21.82
2019-04-23T09:40:04.826Z,21.46
2019-04-23T09:41:53.635Z,21.56
2019-04-23T09:43:00.633Z,21.56
2019-04-23T09:44:09.454Z,21.67
2019-04-23T09:45:56.358Z,22.21
2019-04-23T09:47:00.712Z,22.57
2019-04-23T09:48:03.580Z,22.76
2019-04-23T09:49:20.831Z,22.35
2019-04-23T09:50:01.697Z,22.20
2019-04-23T09:50:54.138Z,22.17
2019-04-23T09:52:00.746Z,22.36
2019-04-23T09:53:11.532Z,22.25
2019-04-23T09:53:58.078Z,22.42
2019-04-23T09:55:04.664Z,22.70
2019-04-23T09:56:10.348Z,22.67
2019-04-23T09:56:52.685Z,22.36
2019-04-23T09:59:02.358Z,21.91
2019-04-23T09:59:59.150Z,22.24
2019-04-23T10:00:54.486Z,22.86
2019-04-23T10:01:50.145Z,23.20
2019-04-23T10:02:47.334Z,23.75
2019-04-23T10:03:40.587Z,23.10
2019-04-23T10:04:44.930Z,22.95
2019-04-23T10:05:39.989Z,22.65
2019-04-23T10:06:33.354Z,22.57
2019-04-23T10:07:40.572Z,22.60
2019-04-23T10:08:36.323Z,21.84
2019-04-23T10:09:30.094Z,22.07
2019-04-23T10:10:30.264Z,21.77
2019-04-23T10:11:30.535Z,21.61
2019-04-23T10:12:30.238Z,21.92
2019-04-23T10:13:29.818Z,22.07
2019-04-23T10:14:30.421Z,22.39
2019-04-23T10:15:36.206Z,22.31
2019-04-23T10:16:33.471Z,22.35
2019-04-23T10:17:29.537Z,22.83
2019-04-23T10:18:30.927Z,23.13
2019-04-23T10:19:30.785Z,23.43
2019-04-23T10:20:30.876Z,22.55
2019-04-23T10:21:31.059Z,22.33
2019-04-23T10:22:32.248Z,22.52
2019-04-23T10:23:29.622Z,22.35
2019-04-23T10:24:30.846Z,22.82
2019-04-23T10:25:30.165Z,22.90
2019-04-23T10:26:30.277Z,23.66
2019-04-23T10:27:29.535Z,23.75
2019-04-23T10:28:29.696Z,22.95
2019-04-23T10:29:29.913Z,22.52
2019-04-23T10:30:30.947Z,22.46
2019-04-23T10:31:29.309Z,22.55
2019-04-23T10:32:29.808Z,22.83
2019-04-23T10:33:29.641Z,22.62
2019-04-23T10:34:30.493Z,22.88
2019-04-23T10:35:39.068Z,23.48
2019-04-23T10:36:31.685Z,23.91
2019-04-23T10:37:36.763Z,23.68
2019-04-23T10:38:30.738Z,23.17
2019-04-23T10:39:35.294Z,22.68
2019-04-23T10:40:33.867Z,22.60
2019-04-23T10:41:30.600Z,22.68
2019-04-23T10:42:32.070Z,22.36
2019-04-23T10:43:31.491Z,22.28
2019-04-23T10:44:30.641Z,22.33
2019-04-23T10:45:44.719Z,22.58
2019-04-23T10:46:48.886Z,22.91
2019-04-23T10:48:03.728Z,22.73
2019-04-23T10:49:00.616Z,22.88
2019-04-23T10:50:01.078Z,23.16
2019-04-23T10:51:59.613Z,22.47
2019-04-23T10:53:05.062Z,22.85
2019-04-23T10:54:04.806Z,22.92
2019-04-23T10:55:03.248Z,23.12
2019-04-23T10:57:56.343Z,23.70
2019-04-23T10:58:54.187Z,23.22
2019-04-23T10:59:53.569Z,22.70
2019-04-23T11:01:07.320Z,22.09
2019-04-23T11:02:22.234Z,22.06
2019-04-23T11:03:00.615Z,22.51
2019-04-23T11:04:11.907Z,22.58
2019-04-23T11:04:57.326Z,22.43
2019-04-23T11:06:00.183Z,22.79
2019-04-23T11:07:07.262Z,23.12
2019-04-23T11:07:47.064Z,23.31
2019-04-23T11:08:50.132Z,23.09
2019-04-23T11:11:00.162Z,23.07
2019-04-23T11:12:01.762Z,23.10
2019-04-23T11:14:01.232Z,23.23
2019-04-23T11:15:10.526Z,23.72
2019-04-23T11:20:58.675Z,23.76
2019-04-23T11:22:05.848Z,23.31
2019-04-23T11:22:51.698Z,23.33
2019-04-23T11:24:02.058Z,23.23
2019-04-23T11:25:23.630Z,23.57
2019-04-23T11:25:48.636Z,23.73
2019-04-23T11:27:00.469Z,23.57
2019-04-23T11:28:02.959Z,22.94
2019-04-23T11:28:51.899Z,22.86
2019-04-23T11:30:00.509Z,23.13
2019-04-23T11:31:09.063Z,23.20
2019-04-23T11:32:06.769Z,23.39
2019-04-23T11:34:01.107Z,23.16
2019-04-23T11:35:14.292Z,22.88
2019-04-23T11:36:18.914Z,23.05
2019-04-23T11:38:58.728Z,23.20
2019-04-23T11:40:01.646Z,23.40
2019-04-23T11:40:48.990Z,23.42
2019-04-23T11:42:26.259Z,23.73
2019-04-23T11:43:14.318Z,24.42
2019-04-23T11:43:54.462Z,24.77
2019-04-23T11:44:56.387Z,24.88
2019-04-23T11:51:26.789Z,23.55
2019-04-23T11:52:56.909Z,23.94
2019-04-23T11:54:01.541Z,23.91
2019-04-23T11:55:00.955Z,23.93
2019-04-23T11:57:14.220Z,24.12
2019-04-23T11:58:08.408Z,23.95
2019-04-23T11:58:52.456Z,23.43
2019-04-23T12:01:02.231Z,23.55
2019-04-23T12:02:07.343Z,23.70
2019-04-23T12:04:05.425Z,23.95
2019-04-23T12:05:02.333Z,23.68
2019-04-23T12:06:00.298Z,23.80
2019-04-23T12:06:59.740Z,24.31
2019-04-23T12:08:03.797Z,24.57
2019-04-23T12:09:02.911Z,24.45
2019-04-23T12:11:24.172Z,23.79
2019-04-23T12:12:59.711Z,23.97
2019-04-23T12:14:04.237Z,23.79
2019-04-23T12:14:51.292Z,23.38
2019-04-23T12:15:53.935Z,23.32
2019-04-23T12:17:08.036Z,23.73
2019-04-23T12:19:19.310Z,23.73
2019-04-23T12:20:21.412Z,23.68
2019-04-23T12:20:52.749Z,23.57
2019-04-23T12:22:04.664Z,23.87
2019-04-23T12:24:15.681Z,23.23
2019-04-23T12:25:08.504Z,23.72
2019-04-23T12:26:03.125Z,23.72
2019-04-23T12:27:00.413Z,23.60
2019-04-23T12:27:44.058Z,23.76
2019-04-23T12:28:57.708Z,23.25
2019-04-23T12:29:55.349Z,23.47
2019-04-23T12:30:57.309Z,23.57
2019-04-23T12:32:08.465Z,23.68
2019-04-23T12:33:10.587Z,23.94
2019-04-23T12:34:00.746Z,23.95
2019-04-23T12:35:51.534Z,23.90
2019-04-23T12:36:50.943Z,24.00
2019-04-23T12:38:58.129Z,24.31
2019-04-23T12:40:01.546Z,24.39
2019-04-23T12:42:01.838Z,24.77
2019-04-23T12:43:12.694Z,24.32
2019-04-23T12:43:51.642Z,23.58
2019-04-23T12:45:46.856Z,23.78
2019-04-23T12:47:04.872Z,23.57
2019-04-23T12:49:07.034Z,23.20
2019-04-23T12:50:31.180Z,23.80
2019-04-23T12:51:12.667Z,23.78
2019-04-23T12:51:55.502Z,23.63
2019-04-23T12:53:07.081Z,24.37
2019-04-23T12:53:49.339Z,24.61
2019-04-23T12:55:15.314Z,24.61
2019-04-23T12:55:50.559Z,23.97
2019-04-23T12:57:50.752Z,23.31
2019-04-23T12:58:46.484Z,23.01
2019-04-23T12:59:58.445Z,23.50
2019-04-23T13:00:45.573Z,23.57
2019-04-23T13:01:55.909Z,23.72
2019-04-23T13:02:58.927Z,23.76
2019-04-23T13:03:49.194Z,23.17
2019-04-23T13:04:51.723Z,23.60
2019-04-23T13:05:42.171Z,23.70
2019-04-23T13:06:50.756Z,23.55
2019-04-23T13:07:53.944Z,23.55
2019-04-23T13:08:55.520Z,23.42
2019-04-23T13:10:01.605Z,23.63
2019-04-23T13:10:50.137Z,23.38
2019-04-23T13:12:20.224Z,23.55
2019-04-23T13:13:01.454Z,23.76
2019-04-23T13:13:58.730Z,24.05
2019-04-23T13:14:57.334Z,24.30
2019-04-23T13:15:51.875Z,24.69
2019-04-23T13:17:01.869Z,24.43
2019-04-23T13:18:50.094Z,24.88
2019-04-23T13:20:00.190Z,25.24
2019-04-23T13:20:53.953Z,25.42
2019-04-23T13:23:49.416Z,23.22
2019-04-23T13:24:55.296Z,23.63
2019-04-23T13:25:55.830Z,23.70
2019-04-23T13:26:56.081Z,23.58
2019-04-23T13:28:02.717Z,23.80
2019-04-23T13:28:51.023Z,23.80
2019-04-23T13:30:00.304Z,23.95
2019-04-23T13:31:50.229Z,24.22
2019-04-23T13:33:02.672Z,24.35
2019-04-23T13:35:12.851Z,24.28
2019-04-23T13:36:53.600Z,23.79
2019-04-23T13:38:47.298Z,24.03
2019-04-23T13:39:54.080Z,23.57
2019-04-23T13:41:54.053Z,24.32
2019-04-23T13:43:02.894Z,24.27
2019-04-23T13:44:00.178Z,23.83
2019-04-23T13:44:55.911Z,24.16
2019-04-23T13:47:00.805Z,23.57
2019-04-23T13:48:03.466Z,23.28
2019-04-23T13:48:48.971Z,23.42
2019-04-23T13:50:00.237Z,23.46
2019-04-23T13:51:54.994Z,23.69
2019-04-23T13:53:07.886Z,23.70
2019-04-23T13:53:53.630Z,23.51
2019-04-23T13:55:04.294Z,23.33
2019-04-23T13:55:53.023Z,22.65
2019-04-23T13:57:25.561Z,22.22
2019-04-23T13:58:07.430Z,22.97
2019-04-23T13:58:57.743Z,23.39
2019-04-23T13:59:52.336Z,23.39
2019-04-23T14:01:00.917Z,23.54
2019-04-23T14:01:46.838Z,23.66
2019-04-23T14:02:54.769Z,23.73
2019-04-23T14:04:11.959Z,23.60
2019-04-23T14:05:02.581Z,23.79
2019-04-23T14:06:01.792Z,24.05
2019-04-23T14:08:00.821Z,24.45
2019-04-23T14:10:08.411Z,23.76
2019-04-23T14:11:16.042Z,24.16
2019-04-23T14:11:46.676Z,24.06
2019-04-23T14:13:08.691Z,24.31
2019-04-23T14:14:00.044Z,24.37
2019-04-23T14:14:56.298Z,24.08
2019-04-23T14:16:13.830Z,23.76
2019-04-23T14:17:18.103Z,23.16
2019-04-23T14:18:11.030Z,22.83
2019-04-23T14:19:53.192Z,22.30
2019-04-23T14:20:55.408Z,22.00
2019-04-23T14:21:53.216Z,21.54
2019-04-23T14:23:08.271Z,21.32
2019-04-23T14:24:11.900Z,21.27
2019-04-23T14:26:10.890Z,21.40
2019-04-23T14:26:50.595Z,21.52
2019-04-23T14:27:56.342Z,21.53
2019-04-23T14:32:53.708Z,21.56
2019-04-23T14:35:04.255Z,21.52
2019-04-23T14:35:49.785Z,21.35
2019-04-23T14:36:57.767Z,21.35
2019-04-23T14:38:11.323Z,21.24
2019-04-23T14:39:16.309Z,21.28
2019-04-23T14:39:56.028Z,21.21
2019-04-23T14:41:06.150Z,21.16
2019-04-23T14:42:02.768Z,21.22
2019-04-23T14:43:03.564Z,21.21
2019-04-23T14:44:03.675Z,21.44
2019-04-23T14:45:02.701Z,21.43
2019-04-23T14:46:27.078Z,21.52
2019-04-23T14:46:58.283Z,21.25
2019-04-23T14:47:59.055Z,21.10
2019-04-23T14:50:18.671Z,20.85
2019-04-23T14:50:51.705Z,20.91
2019-04-23T14:52:02.384Z,21.14
2019-04-23T14:52:58.900Z,21.07
2019-04-23T14:53:48.460Z,21.24
2019-04-23T14:57:03.967Z,20.94
2019-04-23T14:58:06.384Z,20.94
2019-04-23T14:59:01.702Z,20.77
2019-04-23T14:59:54.024Z,20.79
2019-04-23T15:01:06.976Z,20.66
2019-04-23T15:01:54.935Z,20.80
2019-04-23T15:02:59.609Z,20.85
2019-04-23T15:03:49.143Z,20.79
2019-04-23T15:04:56.438Z,20.91
2019-04-23T15:06:05.433Z,20.92
2019-04-23T15:07:51.346Z,20.88
2019-04-23T15:09:00.300Z,20.85
2019-04-23T15:11:06.701Z,20.76
2019-04-23T15:12:02.158Z,20.74
2019-04-23T15:12:51.828Z,20.92
2019-04-23T15:13:50.083Z,21.01
2019-04-23T15:15:02.871Z,20.91
2019-04-23T15:16:02.585Z,20.89
2019-04-23T15:16:54.699Z,21.10
2019-04-23T15:17:56.050Z,21.10
2019-04-23T15:19:02.683Z,20.85
2019-04-23T15:23:13.420Z,20.99
2019-04-23T15:24:00.320Z,20.80
2019-04-23T15:25:06.917Z,20.69
2019-04-23T15:26:22.608Z,20.84
2019-04-23T15:27:21.817Z,20.85
2019-04-23T15:28:32.642Z,20.38
2019-04-23T15:29:42.583Z,20.39
2019-04-23T15:30:59.138Z,20.26
2019-04-23T15:31:55.588Z,20.29
2019-04-23T15:33:03.914Z,20.24
2019-04-23T15:34:00.544Z,20.17
2019-04-23T15:34:57.496Z,20.03
2019-04-23T15:36:02.509Z,20.06
2019-04-23T15:37:01.017Z,20.10
2019-04-23T15:40:00.773Z,19.96
2019-04-23T15:40:53.975Z,19.98
2019-04-23T15:41:59.311Z,19.98
2019-04-23T15:43:00.397Z,19.98
2019-04-23T15:43:57.493Z,20.03
2019-04-23T15:44:55.249Z,20.02
2019-04-23T15:45:55.347Z,20.32
2019-04-23T15:46:57.001Z,20.52
2019-04-23T15:47:56.416Z,20.67
2019-04-23T15:49:05.642Z,20.48
2019-04-23T15:50:57.295Z,20.43
2019-04-23T15:52:58.830Z,20.42